createdAt,value
2019-04-03T00:02:06.683Z,41.40
2019-04-03T00:04:34.381Z,41.40
2019-04-03T00:07:00.720Z,41.30
2019-04-03T00:11:53.232Z,41.30
2019-04-03T00:14:19.278Z,41.30
2019-04-03T00:16:46.053Z,41.30
2019-04-03T00:19:13.204Z,41.30
2019-04-03T00:21:39.262Z,41.30
2019-04-03T00:24:05.449Z,41.30
2019-04-03T00:26:31.814Z,41.30
2019-04-03T00:28:57.939Z,41.30
2019-04-03T00:31:24.032Z,41.30
2019-04-03T00:33:50.072Z,41.20
2019-04-03T00:36:16.465Z,41.30
2019-04-03T00:41:08.971Z,41.30
2019-04-03T00:43:35.351Z,41.20
2019-04-03T00:48:28.497Z,41.20
2019-04-03T00:50:57.269Z,41.20
2019-04-03T00:53:23.536Z,41.30
2019-04-03T00:55:49.585Z,41.30
2019-04-03T01:00:56.315Z,41.30
2019-04-03T01:03:23.715Z,41.20
2019-04-03T01:05:49.797Z,41.30
2019-04-03T01:10:42.270Z,41.20
2019-04-03T01:13:08.351Z,41.20
2019-04-03T01:18:01.429Z,41.20
2019-04-03T01:20:29.653Z,41.20
2019-04-03T01:22:55.759Z,41.20
2019-04-03T01:25:21.804Z,41.20
2019-04-03T01:27:48.234Z,41.20
2019-04-03T01:32:40.727Z,41.20
2019-04-03T01:35:09.149Z,41.20
2019-04-03T01:37:35.634Z,41.30
2019-04-03T01:40:04.315Z,41.30
2019-04-03T01:44:56.910Z,41.30
2019-04-03T01:47:22.951Z,41.20
2019-04-03T01:49:49.133Z,41.30
2019-04-03T01:52:15.523Z,41.20
2019-04-03T01:57:08.077Z,41.30
2019-04-03T01:59:34.156Z,41.30
2019-04-03T02:02:00.235Z,41.30
2019-04-03T02:04:26.283Z,41.30
2019-04-03T02:06:52.697Z,41.30
2019-04-03T02:09:18.884Z,41.30
2019-04-03T02:11:45.127Z,41.30
2019-04-03T02:16:37.905Z,41.30
2019-04-03T02:19:04.069Z,41.30
2019-04-03T02:21:30.115Z,41.30
2019-04-03T02:23:56.197Z,41.30
2019-04-03T02:26:22.503Z,41.30
2019-04-03T02:31:18.274Z,41.30
2019-04-03T02:33:43.278Z,41.30
2019-04-03T02:36:12.554Z,41.30
2019-04-03T02:41:05.516Z,41.30
2019-04-03T02:43:32.048Z,41.30
2019-04-03T02:50:52.245Z,41.30
2019-04-03T02:53:18.590Z,41.30
2019-04-03T02:58:11.695Z,41.40
2019-04-03T03:00:37.899Z,41.40
2019-04-03T03:03:04.064Z,41.40
2019-04-03T03:05:30.216Z,41.40
2019-04-03T03:07:56.308Z,41.40
2019-04-03T03:10:22.380Z,41.40
2019-04-03T03:12:50.132Z,41.40
2019-04-03T03:15:16.176Z,41.40
2019-04-03T03:17:44.080Z,41.40
2019-04-03T03:20:12.529Z,41.50
2019-04-03T03:22:38.965Z,41.40
2019-04-03T03:25:06.524Z,41.40
2019-04-03T03:30:02.352Z,41.50
2019-04-03T03:32:35.281Z,41.50
2019-04-03T03:35:12.601Z,41.40
2019-04-03T03:37:34.183Z,41.50
2019-04-03T03:40:01.350Z,41.50
2019-04-03T03:42:30.984Z,41.50
2019-04-03T03:45:01.387Z,41.50
2019-04-03T03:47:32.014Z,41.50
2019-04-03T03:52:25.018Z,41.50
2019-04-03T03:54:52.551Z,41.50
2019-04-03T03:57:20.661Z,41.50
2019-04-03T03:59:51.425Z,41.50
2019-04-03T04:04:46.641Z,41.50
2019-04-03T04:07:11.309Z,41.50
2019-04-03T04:09:39.196Z,41.40
2019-04-03T04:14:35.498Z,41.50
2019-04-03T04:17:02.451Z,41.40
2019-04-03T04:21:56.957Z,41.40
2019-04-03T04:34:13.096Z,41.40
2019-04-03T04:36:39.176Z,41.50
2019-04-03T04:46:26.619Z,41.50
2019-04-03T04:51:19.145Z,41.50
2019-04-03T04:53:45.520Z,41.50
2019-04-03T04:56:11.602Z,41.50
2019-04-03T04:58:37.709Z,41.50
2019-04-03T05:01:03.889Z,41.60
2019-04-03T05:03:30.019Z,41.60
2019-04-03T05:05:58.293Z,41.50
2019-04-03T05:08:24.157Z,41.60
2019-04-03T05:10:50.554Z,41.60
2019-04-03T05:13:16.794Z,41.60
2019-04-03T05:15:45.075Z,41.50
2019-04-03T05:18:11.365Z,41.50
2019-04-03T05:23:04.143Z,41.60
2019-04-03T05:25:30.467Z,41.60
2019-04-03T05:27:57.275Z,41.50
2019-04-03T05:30:31.788Z,41.60
2019-04-03T05:32:59.670Z,41.60
2019-04-03T05:35:27.111Z,41.60
2019-04-03T05:37:53.441Z,41.70
2019-04-03T05:40:19.530Z,41.60
2019-04-03T05:42:45.594Z,41.70
2019-04-03T05:47:39.849Z,41.70
2019-04-03T05:50:07.249Z,41.70
2019-04-03T05:52:35.149Z,41.80
2019-04-03T05:55:03.229Z,41.80
2019-04-03T05:57:29.636Z,41.80
2019-04-03T06:00:00.544Z,41.70
2019-04-03T06:02:24.176Z,41.70
2019-04-03T06:04:50.305Z,41.80
2019-04-03T06:07:18.192Z,41.80
2019-04-03T06:09:44.576Z,41.80
2019-04-03T06:14:39.259Z,41.80
2019-04-03T06:17:05.441Z,41.80
2019-04-03T06:19:34.071Z,41.80
2019-04-03T06:21:59.787Z,41.80
2019-04-03T06:24:25.935Z,41.90
2019-04-03T06:26:52.105Z,41.90
2019-04-03T06:31:46.479Z,41.90
2019-04-03T06:34:13.994Z,41.90
2019-04-03T06:36:40.924Z,42.00
2019-04-03T06:39:06.990Z,41.90
2019-04-03T06:41:33.058Z,41.90
2019-04-03T06:43:59.136Z,41.90
2019-04-03T06:51:22.349Z,42.00
2019-04-03T06:53:49.327Z,42.00
2019-04-03T06:56:15.377Z,42.00
2019-04-03T06:58:43.829Z,42.00
2019-04-03T07:01:09.783Z,42.00
2019-04-03T07:03:35.827Z,42.00
2019-04-03T07:06:02.284Z,41.90
2019-04-03T07:08:34.588Z,41.90
2019-04-03T07:10:57.138Z,41.90
2019-04-03T07:13:23.577Z,42.00
2019-04-03T07:15:50.297Z,41.90
2019-04-03T07:18:16.339Z,42.00
2019-04-03T07:20:42.428Z,41.90
2019-04-03T07:23:08.487Z,41.90
2019-04-03T07:25:34.978Z,42.00
2019-04-03T07:28:02.179Z,42.00
2019-04-03T07:30:28.755Z,42.10
2019-04-03T07:32:57.905Z,42.20
2019-04-03T07:35:23.163Z,42.30
2019-04-03T07:37:50.965Z,42.30
2019-04-03T07:40:18.763Z,42.40
2019-04-03T07:45:13.373Z,42.30
2019-04-03T07:50:10.300Z,42.20
2019-04-03T07:52:36.019Z,42.20
2019-04-03T07:55:03.255Z,42.20
2019-04-03T07:57:29.802Z,42.20
2019-04-03T07:59:56.038Z,42.20
2019-04-03T08:02:22.395Z,42.20
2019-04-03T08:04:48.878Z,42.20
2019-04-03T08:07:15.200Z,42.20
2019-04-03T08:09:41.829Z,42.20
2019-04-03T08:12:08.177Z,42.30
2019-04-03T08:14:34.222Z,42.30
2019-04-03T08:17:00.305Z,42.40
2019-04-03T08:19:26.645Z,42.50
2019-04-03T08:21:52.693Z,42.50
2019-04-03T08:24:18.745Z,42.50
2019-04-03T08:26:44.961Z,42.60
2019-04-03T08:29:12.043Z,42.60
2019-04-03T08:31:38.709Z,42.70
2019-04-03T08:36:33.137Z,42.70
2019-04-03T08:38:59.188Z,42.70
2019-04-03T08:41:25.444Z,42.80
2019-04-03T08:43:51.825Z,42.90
2019-04-03T08:46:17.907Z,42.90
2019-04-03T08:48:44.235Z,42.90
2019-04-03T08:53:38.942Z,42.90
2019-04-03T08:58:31.144Z,43.00
2019-04-03T09:03:23.763Z,43.00
2019-04-03T09:05:51.048Z,42.90
2019-04-03T09:10:44.761Z,42.90
2019-04-03T09:13:17.646Z,42.90
2019-04-03T09:15:39.536Z,42.90
2019-04-03T09:18:06.896Z,42.90
2019-04-03T09:20:35.529Z,43.00
2019-04-03T09:23:01.560Z,43.00
2019-04-03T09:25:27.639Z,43.00
2019-04-03T09:27:53.791Z,42.90
2019-04-03T09:30:21.687Z,42.90
2019-04-03T09:32:49.027Z,43.00
2019-04-03T09:35:15.360Z,43.00
2019-04-03T09:40:10.274Z,42.90
2019-04-03T09:42:36.324Z,42.90
2019-04-03T09:45:05.046Z,43.00
2019-04-03T09:47:31.693Z,42.90
2019-04-03T09:49:59.689Z,42.80
2019-04-03T09:52:37.945Z,42.90
2019-04-03T09:54:54.341Z,42.90
2019-04-03T09:57:20.967Z,42.90
2019-04-03T09:59:48.283Z,42.90
2019-04-03T10:02:15.263Z,42.90
2019-04-03T10:04:41.350Z,42.90
2019-04-03T10:07:07.501Z,42.90
2019-04-03T10:09:33.586Z,42.80
2019-04-03T10:11:59.882Z,42.80
2019-04-03T10:14:28.111Z,42.80
2019-04-03T10:16:54.272Z,42.80
2019-04-03T10:19:20.319Z,42.80
2019-04-03T10:21:46.409Z,42.80
2019-04-03T10:24:12.543Z,42.80
2019-04-03T10:26:40.560Z,42.80
2019-04-03T10:29:07.018Z,42.80
2019-04-03T10:31:33.951Z,42.70
2019-04-03T10:34:03.146Z,42.70
2019-04-03T10:38:56.116Z,42.70
2019-04-03T10:41:23.300Z,42.70
2019-04-03T10:46:18.578Z,42.70
2019-04-03T10:48:44.728Z,42.70
2019-04-03T10:51:10.869Z,42.70
2019-04-03T10:53:37.065Z,42.70
2019-04-03T10:58:31.274Z,42.70
2019-04-03T11:00:59.112Z,42.70
2019-04-03T11:03:26.459Z,42.70
2019-04-03T11:05:54.035Z,42.70
2019-04-03T11:08:20.384Z,42.70
2019-04-03T11:10:46.696Z,42.70
2019-04-03T11:13:12.753Z,42.70
2019-04-03T11:15:38.843Z,42.70
2019-04-03T11:18:04.914Z,42.70
2019-04-03T11:23:05.996Z,42.70
2019-04-03T11:25:25.941Z,42.60
2019-04-03T11:27:53.920Z,42.60
2019-04-03T11:30:24.589Z,42.60
2019-04-03T11:32:50.487Z,42.60
2019-04-03T11:35:17.276Z,42.70
2019-04-03T11:37:43.315Z,42.60
2019-04-03T11:42:36.816Z,42.60
2019-04-03T11:45:08.111Z,42.60
2019-04-03T11:47:34.263Z,42.60
2019-04-03T11:50:00.316Z,42.60
2019-04-03T11:52:26.514Z,42.60
2019-04-03T11:54:53.675Z,42.60
2019-04-03T11:57:20.067Z,42.60
2019-04-03T11:59:47.464Z,42.50
2019-04-03T12:02:14.389Z,42.50
2019-04-03T12:04:43.168Z,42.50
2019-04-03T12:09:37.000Z,42.50
2019-04-03T12:12:04.575Z,42.50
2019-04-03T12:14:31.284Z,42.50
2019-04-03T12:16:58.462Z,42.50
2019-04-03T12:19:25.155Z,42.50
2019-04-03T12:24:19.257Z,42.50
2019-04-03T12:26:45.428Z,42.50
2019-04-03T12:29:11.781Z,42.40
2019-04-03T12:31:37.902Z,42.50
2019-04-03T12:34:06.603Z,42.40
2019-04-03T12:36:32.471Z,42.40
2019-04-03T12:38:58.651Z,42.40
2019-04-03T12:41:27.144Z,42.40
2019-04-03T12:43:53.012Z,42.40
2019-04-03T12:46:21.001Z,42.40
2019-04-03T12:48:48.704Z,42.40
2019-04-03T12:51:15.448Z,42.40
2019-04-03T12:53:42.548Z,42.40
2019-04-03T12:56:09.088Z,42.40
2019-04-03T12:58:36.826Z,42.40
2019-04-03T13:01:03.895Z,42.30
2019-04-03T13:03:29.999Z,42.30
2019-04-03T13:05:56.113Z,42.30
2019-04-03T13:10:49.719Z,42.30
2019-04-03T13:15:43.621Z,42.30
2019-04-03T13:18:10.147Z,42.30
2019-04-03T13:20:37.458Z,42.30
2019-04-03T13:23:04.211Z,42.30
2019-04-03T13:27:58.374Z,42.30
2019-04-03T13:30:25.060Z,42.20
2019-04-03T13:32:58.295Z,42.20
2019-04-03T13:35:19.131Z,42.30
2019-04-03T13:37:45.195Z,42.30
2019-04-03T13:40:12.587Z,42.30
2019-04-03T13:42:38.690Z,42.20
2019-04-03T13:45:08.557Z,42.20
2019-04-03T13:47:35.994Z,42.30
2019-04-03T13:50:05.560Z,42.30
2019-04-03T13:55:00.099Z,42.30
2019-04-03T13:57:27.306Z,42.20
2019-04-03T13:59:59.549Z,42.20
2019-04-03T14:04:49.465Z,42.20
2019-04-03T14:07:15.660Z,42.20
2019-04-03T14:09:42.433Z,42.20
2019-04-03T14:12:08.828Z,42.10
2019-04-03T14:14:35.140Z,42.20
2019-04-03T14:17:02.012Z,42.00
2019-04-03T14:19:41.502Z,42.10
2019-04-03T14:22:00.011Z,42.00
2019-04-03T14:24:37.617Z,42.10
2019-04-03T14:29:20.890Z,42.00
2019-04-03T14:31:49.360Z,41.90
2019-04-03T14:34:16.496Z,42.00
2019-04-03T14:36:43.558Z,42.00
2019-04-03T14:39:11.204Z,41.80
2019-04-03T14:41:38.561Z,41.90
2019-04-03T14:46:33.075Z,41.80
2019-04-03T14:49:02.567Z,41.80
2019-04-03T14:53:55.545Z,41.80
2019-04-03T14:56:21.788Z,41.80
2019-04-03T15:03:42.580Z,41.70
2019-04-03T15:06:08.624Z,41.70
2019-04-03T15:08:35.032Z,41.80
2019-04-03T15:11:03.017Z,41.70
2019-04-03T15:13:29.786Z,41.70
2019-04-03T15:15:58.816Z,41.70
2019-04-03T15:18:24.961Z,41.60
2019-04-03T15:20:51.447Z,41.70
2019-04-03T15:23:18.040Z,41.60
2019-04-03T15:25:46.749Z,41.60
2019-04-03T15:30:43.404Z,41.60
2019-04-03T15:33:09.448Z,41.60
2019-04-03T15:35:36.033Z,41.60
2019-04-03T15:38:02.148Z,41.60
2019-04-03T15:40:28.352Z,41.60
2019-04-03T15:42:55.312Z,41.60
2019-04-03T15:47:53.125Z,41.60
2019-04-03T15:50:19.818Z,41.60
2019-04-03T15:52:48.738Z,41.50
2019-04-03T15:55:14.855Z,41.40
2019-04-03T15:57:41.395Z,41.40
2019-04-03T16:00:14.665Z,41.40
2019-04-03T16:02:44.377Z,41.40
2019-04-03T16:07:40.465Z,41.20
2019-04-03T16:10:07.214Z,41.40
2019-04-03T16:12:35.913Z,41.60
2019-04-03T16:15:08.262Z,41.90
2019-04-03T16:17:34.158Z,42.00
2019-04-03T16:20:03.037Z,42.00
2019-04-03T16:22:31.507Z,42.10
2019-04-03T16:27:27.682Z,42.30
2019-04-03T16:29:53.252Z,42.40
2019-04-03T16:32:19.519Z,42.50
2019-04-03T16:34:46.342Z,42.50
2019-04-03T16:37:12.867Z,42.30
2019-04-03T16:39:39.229Z,42.20
2019-04-03T16:42:06.086Z,42.30
2019-04-03T16:44:33.155Z,42.10
2019-04-03T16:46:59.303Z,42.20
2019-04-03T16:51:54.032Z,42.20
2019-04-03T16:54:20.219Z,42.00
2019-04-03T16:56:49.960Z,42.00
2019-04-03T16:59:16.872Z,42.00
2019-04-03T17:01:46.053Z,41.90
2019-04-03T17:04:23.833Z,42.00
2019-04-03T17:06:40.460Z,42.00
2019-04-03T17:09:07.762Z,42.00
2019-04-03T17:11:34.024Z,42.00
2019-04-03T17:14:00.072Z,41.90
2019-04-03T17:18:54.380Z,42.00
2019-04-03T17:21:21.032Z,41.80
2019-04-03T17:23:47.345Z,41.90
2019-04-03T17:28:41.485Z,41.90
2019-04-03T17:31:07.821Z,41.90
2019-04-03T17:33:35.724Z,41.90
2019-04-03T17:36:03.315Z,41.90
2019-04-03T17:38:31.505Z,42.00
2019-04-03T17:40:57.398Z,42.00
2019-04-03T17:43:23.596Z,42.00
2019-04-03T17:48:16.161Z,42.00
2019-04-03T17:50:42.283Z,42.00
2019-04-03T17:55:35.508Z,42.00
2019-04-03T17:58:01.837Z,41.90
2019-04-03T18:05:21.235Z,42.00
2019-04-03T18:07:47.460Z,42.00
2019-04-03T18:10:15.422Z,42.10
2019-04-03T18:12:41.533Z,42.10
2019-04-03T18:15:09.624Z,42.10
2019-04-03T18:17:35.983Z,42.10
2019-04-03T18:20:04.636Z,42.00
2019-04-03T18:22:30.751Z,42.10
2019-04-03T18:24:56.800Z,42.10
2019-04-03T18:27:24.160Z,42.10
2019-04-03T18:29:50.267Z,42.10
2019-04-03T18:34:42.791Z,42.00
2019-04-03T18:37:09.161Z,42.10
2019-04-03T18:39:35.259Z,42.00
2019-04-03T18:44:30.126Z,42.10
2019-04-03T18:46:56.108Z,42.10
2019-04-03T18:51:49.279Z,42.00
2019-04-03T18:54:15.346Z,42.00
2019-04-03T18:59:08.212Z,42.10
2019-04-03T19:01:34.599Z,42.10
2019-04-03T19:04:00.707Z,42.20
2019-04-03T19:08:53.297Z,42.10
2019-04-03T19:11:19.616Z,42.10
2019-04-03T19:16:24.026Z,42.20
2019-04-03T19:18:42.580Z,42.20
2019-04-03T19:21:23.744Z,42.20
2019-04-03T19:23:48.887Z,42.20
2019-04-03T19:26:05.611Z,42.30
2019-04-03T19:28:34.298Z,42.50
2019-04-03T19:33:26.553Z,42.30
2019-04-03T19:35:52.605Z,42.30
2019-04-03T19:38:18.975Z,42.40
2019-04-03T19:40:45.404Z,42.30
2019-04-03T19:43:14.654Z,42.20
2019-04-03T19:45:39.447Z,42.20
2019-04-03T19:48:05.491Z,42.20
2019-04-03T19:50:31.833Z,42.10
2019-04-03T19:52:59.510Z,42.10
2019-04-03T19:57:52.372Z,42.10
2019-04-03T20:02:45.801Z,42.10
2019-04-03T20:05:12.682Z,42.00
2019-04-03T20:10:08.491Z,42.00
2019-04-03T20:12:35.843Z,41.90
2019-04-03T20:15:05.779Z,41.80
2019-04-03T20:17:34.564Z,41.80
2019-04-03T20:20:00.215Z,41.80
2019-04-03T20:22:26.256Z,41.80
2019-04-03T20:24:59.891Z,41.80
2019-04-03T20:27:20.928Z,41.80
2019-04-03T20:29:47.256Z,41.80
2019-04-03T20:32:13.317Z,41.70
2019-04-03T20:34:39.401Z,41.80
2019-04-03T20:39:33.924Z,41.70
2019-04-03T20:42:03.042Z,41.60
2019-04-03T20:44:28.411Z,41.60
2019-04-03T20:46:56.020Z,41.60
2019-04-03T20:49:22.425Z,41.60
2019-04-03T20:51:48.808Z,41.50
2019-04-03T20:54:15.666Z,41.50
2019-04-03T20:56:42.005Z,41.50
2019-04-03T21:08:58.725Z,41.50
2019-04-03T21:13:51.004Z,41.40
2019-04-03T21:16:17.545Z,41.50
2019-04-03T21:18:44.164Z,41.50
2019-04-03T21:21:10.548Z,41.40
2019-04-03T21:23:36.672Z,41.40
2019-04-03T21:28:29.516Z,41.40
2019-04-03T21:30:55.576Z,41.30
2019-04-03T21:33:21.645Z,41.40
2019-04-03T21:35:47.991Z,41.40
2019-04-03T21:38:14.047Z,41.30
2019-04-03T21:40:40.123Z,41.30
2019-04-03T21:43:07.524Z,41.40
2019-04-03T21:45:34.231Z,41.30
2019-04-03T21:48:00.319Z,41.30
2019-04-03T21:50:26.688Z,41.20
2019-04-03T21:52:53.749Z,41.20
2019-04-03T21:55:20.731Z,41.20
2019-04-03T21:57:46.800Z,41.20
2019-04-03T22:05:11.938Z,41.30
2019-04-03T22:07:38.025Z,41.20
2019-04-03T22:15:05.552Z,41.20
2019-04-03T22:17:31.620Z,41.20
2019-04-03T22:19:58.616Z,41.10
2019-04-03T22:22:25.654Z,41.10
2019-04-03T22:27:18.490Z,41.20
2019-04-03T22:29:44.865Z,41.10
2019-04-03T22:32:11.048Z,41.10
2019-04-03T22:34:37.195Z,41.10
2019-04-03T22:37:04.483Z,41.00
2019-04-03T22:39:31.227Z,41.10
2019-04-03T22:41:57.542Z,41.10
2019-04-03T22:44:23.863Z,41.00
2019-04-03T22:46:50.200Z,41.00
2019-04-03T22:49:16.350Z,41.00
2019-04-03T22:51:42.637Z,40.90
2019-04-03T22:54:08.716Z,41.00
2019-04-03T22:56:35.104Z,40.90
2019-04-03T22:59:01.218Z,40.90
2019-04-03T23:01:29.585Z,40.90
2019-04-03T23:03:55.942Z,40.90
2019-04-03T23:06:22.020Z,40.80
2019-04-03T23:08:48.074Z,40.90
2019-04-03T23:11:14.152Z,40.90
2019-04-03T23:16:07.154Z,40.80
2019-04-03T23:18:33.524Z,40.90
2019-04-03T23:20:59.572Z,40.90
2019-04-03T23:23:27.601Z,40.80
2019-04-03T23:25:54.236Z,40.80
2019-04-03T23:28:20.283Z,40.70
2019-04-03T23:30:46.327Z,40.80
2019-04-03T23:35:38.837Z,40.80
2019-04-03T23:38:04.916Z,40.90
2019-04-03T23:40:30.959Z,40.80
2019-04-03T23:42:57.051Z,40.80
2019-04-03T23:47:51.744Z,40.80
2019-04-03T23:50:18.152Z,40.80
2019-04-03T23:52:44.484Z,40.80
2019-04-03T23:55:10.569Z,40.80
